sensor_id;sensor_type;location;lat;lon;timestamp;pressure;altitude;pressure_sealevel;temperature;humidity
58927;BME280;44712;52.530;9.760;2022-09-09T00:02:15;100325.19;;;13.71;100.00
58927;BME280;44712;52.530;9.760;2022-09-09T00:05:08;100328.94;;;13.67;100.00
58927;BME280;44712;52.530;9.760;2022-09-09T00:07:48;100329.03;;;13.64;100.00
58927;BME280;44712;52.530;9.760;2022-09-09T00:10:33;100325.47;;;13.62;100.00
58927;BME280;44712;52.530;9.760;2022-09-09T00:13:21;100331.84;;;13.61;100.00
58927;BME280;44712;52.530;9.760;2022-09-09T00:16:08;100326.47;;;13.60;100.00
58927;BME280;44712;52.530;9.760;2022-09-09T00:18:45;100323.78;;;13.58;100.00
58927;BME280;44712;52.530;9.760;2022-09-09T00:21:16;100320.22;;;13.56;100.00
58927;BME280;44712;52.530;9.760;2022-09-09T00:23:56;100323.97;;;13.52;100.00
58927;BME280;44712;52.530;9.760;2022-09-09T00:26:38;100327.72;;;13.48;100.00
58927;BME280;44712;52.530;9.760;2022-09-09T00:31:35;100322.41;;;13.45;100.00
58927;BME280;44712;52.530;9.760;2022-09-09T00:34:13;100323.44;;;13.41;100.00
58927;BME280;44712;52.530;9.760;2022-09-09T00:36:41;100326.25;;;13.37;100.00
58927;BME280;44712;52.530;9.760;2022-09-09T00:42:14;100322.66;;;13.35;100.00
58927;BME280;44712;52.530;9.760;2022-09-09T00:45:26;100320.88;;;13.34;100.00
58927;BME280;44712;52.530;9.760;2022-09-09T00:48:04;100329.13;;;13.31;100.00
58927;BME280;44712;52.530;9.760;2022-09-09T00:50:53;100322.84;;;13.29;100.00
58927;BME280;44712;52.530;9.760;2022-09-09T00:53:31;100322.00;;;13.27;100.00
58927;BME280;44712;52.530;9.760;2022-09-09T00:58:35;100320.22;;;13.26;100.00
58927;BME280;44712;52.530;9.760;2022-09-09T01:01:09;100320.22;;;13.26;100.00
58927;BME280;44712;52.530;9.760;2022-09-09T01:03:49;100328.38;;;13.26;100.00
58927;BME280;44712;52.530;9.760;2022-09-09T01:06:44;100323.91;;;13.23;100.00
58927;BME280;44712;52.530;9.760;2022-09-09T01:09:32;100332.28;;;13.16;100.00
58927;BME280;44712;52.530;9.760;2022-09-09T01:12:15;100330.53;;;13.15;100.00
58927;BME280;44712;52.530;9.760;2022-09-09T01:14:49;100329.53;;;13.17;100.00
58927;BME280;44712;52.530;9.760;2022-09-09T01:28:21;100316.09;;;13.13;100.00
58927;BME280;44712;52.530;9.760;2022-09-09T01:30:53;100316.38;;;13.03;100.00
58927;BME280;44712;52.530;9.760;2022-09-09T01:33:24;100318.22;;;13.01;100.00
58927;BME280;44712;52.530;9.760;2022-09-09T01:35:55;100318.31;;;12.98;100.00
58927;BME280;44712;52.530;9.760;2022-09-09T01:38:31;100308.28;;;13.02;100.00
58927;BME280;44712;52.530;9.760;2022-09-09T01:41:02;100309.31;;;12.98;100.00
58927;BME280;44712;52.530;9.760;2022-09-09T01:43:40;100306.69;;;12.93;100.00
58927;BME280;44712;52.530;9.760;2022-09-09T01:46:07;100307.72;;;12.89;100.00
58927;BME280;44712;52.530;9.760;2022-09-09T01:48:35;100302.31;;;12.89;100.00
58927;BME280;44712;52.530;9.760;2022-09-09T01:51:08;100304.19;;;12.87;100.00
58927;BME280;44712;52.530;9.760;2022-09-09T01:53:38;100306.03;;;12.85;100.00
58927;BME280;44712;52.530;9.760;2022-09-09T01:59:26;100313.53;;;12.77;100.00
58927;BME280;44712;52.530;9.760;2022-09-09T02:04:41;100308.16;;;12.75;100.00
58927;BME280;44712;52.530;9.760;2022-09-09T02:10:16;100310.75;;;12.78;100.00
58927;BME280;44712;52.530;9.760;2022-09-09T02:13:07;100311.69;;;12.77;100.00
58927;BME280;44712;52.530;9.760;2022-09-09T02:15:44;100305.34;;;12.78;100.00
58927;BME280;44712;52.530;9.760;2022-09-09T02:18:13;100301.78;;;12.76;100.00
58927;BME280;44712;52.530;9.760;2022-09-09T02:20:44;100304.53;;;12.75;100.00
58927;BME280;44712;52.530;9.760;2022-09-09T02:23:12;100307.22;;;12.75;100.00
58927;BME280;44712;52.530;9.760;2022-09-09T02:25:42;100310.81;;;12.77;100.00
58927;BME280;44712;52.530;9.760;2022-09-09T02:28:20;100304.47;;;12.78;100.00
58927;BME280;44712;52.530;9.760;2022-09-09T02:30:56;100314.38;;;12.79;100.00
58927;BME280;44712;52.530;9.760;2022-09-09T02:33:40;100309.78;;;12.81;100.00
58927;BME280;44712;52.530;9.760;2022-09-09T02:36:10;100307.94;;;12.83;100.00
58927;BME280;44712;52.530;9.760;2022-09-09T02:38:47;100313.31;;;12.84;100.00
58927;BME280;44712;52.530;9.760;2022-09-09T02:41:27;100306.03;;;12.85;100.00
58927;BME280;44712;52.530;9.760;2022-09-09T02:43:56;100306.03;;;12.85;100.00
58927;BME280;44712;52.530;9.760;2022-09-09T02:46:39;100302.41;;;12.86;100.00
58927;BME280;44712;52.530;9.760;2022-09-09T02:49:25;100306.91;;;12.87;100.00
58927;BME280;44712;52.530;9.760;2022-09-09T02:52:02;100299.69;;;12.86;100.00
58927;BME280;44712;52.530;9.760;2022-09-09T02:54:35;100304.19;;;12.87;100.00
58927;BME280;44712;52.530;9.760;2022-09-09T02:59:40;100311.38;;;12.88;100.00
58927;BME280;44712;52.530;9.760;2022-09-09T03:02:07;100305.94;;;12.88;100.00
58927;BME280;44712;52.530;9.760;2022-09-09T03:04:42;100310.44;;;12.89;100.00
58927;BME280;44712;52.530;9.760;2022-09-09T03:07:18;100312.28;;;12.88;100.00
58927;BME280;44712;52.530;9.760;2022-09-09T03:09:45;100315.06;;;12.87;100.00
58927;BME280;44712;52.530;9.760;2022-09-09T03:12:12;100315.94;;;12.87;100.00
58927;BME280;44712;52.530;9.760;2022-09-09T03:14:39;100308.66;;;12.89;100.00
58927;BME280;44712;52.530;9.760;2022-09-09T03:17:06;100316.81;;;12.88;100.00
58927;BME280;44712;52.530;9.760;2022-09-09T03:19:37;100318.59;;;12.89;100.00
58927;BME280;44712;52.530;9.760;2022-09-09T03:22:09;100313.16;;;12.89;100.00
58927;BME280;44712;52.530;9.760;2022-09-09T03:24:38;100319.47;;;12.91;100.00
58927;BME280;44712;52.530;9.760;2022-09-09T03:27:05;100319.50;;;12.89;100.00
58927;BME280;44712;52.530;9.760;2022-09-09T03:29:33;100311.31;;;12.91;100.00
58927;BME280;44712;52.530;9.760;2022-09-09T03:32:03;100318.53;;;12.92;100.00
58927;BME280;44712;52.530;9.760;2022-09-09T03:34:29;100312.13;;;12.93;100.00
58927;BME280;44712;52.530;9.760;2022-09-09T03:36:57;100309.41;;;12.93;100.00
58927;BME280;44712;52.530;9.760;2022-09-09T03:39:25;100314.78;;;12.96;100.00
58927;BME280;44712;52.530;9.760;2022-09-09T03:41:52;100315.72;;;12.95;100.00
58927;BME280;44712;52.530;9.760;2022-09-09T03:44:19;100320.13;;;12.99;100.00
58927;BME280;44712;52.530;9.760;2022-09-09T03:46:46;100314.69;;;12.99;100.00
58927;BME280;44712;52.530;9.760;2022-09-09T03:49:13;100318.28;;;13.00;100.00
58927;BME280;44712;52.530;9.760;2022-09-09T03:51:41;100319.19;;;13.00;100.00
58927;BME280;44712;52.530;9.760;2022-09-09T03:54:09;100322.84;;;12.99;100.00
58927;BME280;44712;52.530;9.760;2022-09-09T03:56:37;100314.69;;;12.99;100.00
58927;BME280;44712;52.530;9.760;2022-09-09T03:59:04;100321.91;;;13.00;100.00
58927;BME280;44712;52.530;9.760;2022-09-09T04:01:31;100321.00;;;13.00;100.00
58927;BME280;44712;52.530;9.760;2022-09-09T04:03:57;100321.91;;;13.00;100.00
58927;BME280;44712;52.530;9.760;2022-09-09T04:06:24;100323.66;;;13.01;100.00
58927;BME280;44712;52.530;9.760;2022-09-09T04:08:52;100328.16;;;13.02;100.00
58927;BME280;44712;52.530;9.760;2022-09-09T04:11:20;100311.88;;;13.02;100.00
58927;BME280;44712;52.530;9.760;2022-09-09T04:13:50;100320.94;;;13.03;100.00
58927;BME280;44712;52.530;9.760;2022-09-09T04:16:17;100324.53;;;13.03;100.00
58927;BME280;44712;52.530;9.760;2022-09-09T04:18:45;100323.59;;;13.04;100.00
58927;BME280;44712;52.530;9.760;2022-09-09T04:21:14;100320.00;;;13.02;100.00
58927;BME280;44712;52.530;9.760;2022-09-09T04:23:42;100321.84;;;13.02;100.00
58927;BME280;44712;52.530;9.760;2022-09-09T04:26:09;100322.72;;;13.02;100.00
58927;BME280;44712;52.530;9.760;2022-09-09T04:28:37;100324.56;;;13.02;100.00
58927;BME280;44712;52.530;9.760;2022-09-09T04:31:15;100329.09;;;13.01;100.00
58927;BME280;44712;52.530;9.760;2022-09-09T04:33:44;100326.38;;;13.01;100.00
58927;BME280;44712;52.530;9.760;2022-09-09T04:36:13;100316.47;;;13.00;100.00
58927;BME280;44712;52.530;9.760;2022-09-09T04:38:42;100330.00;;;13.02;100.00
58927;BME280;44712;52.530;9.760;2022-09-09T04:41:11;100321.00;;;13.00;100.00
58927;BME280;44712;52.530;9.760;2022-09-09T04:43:40;100324.63;;;13.00;100.00
58927;BME280;44712;52.530;9.760;2022-09-09T04:46:08;100329.19;;;12.98;100.00
58927;BME280;44712;52.530;9.760;2022-09-09T04:48:35;100327.41;;;12.97;100.00
58927;BME280;44712;52.530;9.760;2022-09-09T04:51:06;100330.13;;;12.97;100.00
58927;BME280;44712;52.530;9.760;2022-09-09T04:53:34;100330.09;;;12.99;100.00
58927;BME280;44712;52.530;9.760;2022-09-09T04:58:36;100325.66;;;12.96;100.00
58927;BME280;44712;52.530;9.760;2022-09-09T05:01:06;100334.69;;;12.97;100.00
58927;BME280;44712;52.530;9.760;2022-09-09T05:03:35;100350.91;;;12.98;100.00
58927;BME280;44712;52.530;9.760;2022-09-09T05:06:09;100340.06;;;12.98;100.00
58927;BME280;44712;52.530;9.760;2022-09-09T05:08:41;100335.44;;;13.02;100.00
58927;BME280;44712;52.530;9.760;2022-09-09T05:11:15;100338.09;;;13.03;100.00
58927;BME280;44712;52.530;9.760;2022-09-09T05:13:46;100334.25;;;13.11;100.00
58927;BME280;44712;52.530;9.760;2022-09-09T05:16:13;100343.25;;;13.13;100.00
58927;BME280;44712;52.530;9.760;2022-09-09T05:18:41;100348.59;;;13.16;100.00
58927;BME280;44712;52.530;9.760;2022-09-09T05:21:13;100344.06;;;13.16;100.00
58927;BME280;44712;52.530;9.760;2022-09-09T05:23:40;100347.56;;;13.20;100.00
58927;BME280;44712;52.530;9.760;2022-09-09T05:26:11;100342.13;;;13.20;100.00
58927;BME280;44712;52.530;9.760;2022-09-09T05:28:45;100351.97;;;13.24;100.00
58927;BME280;44712;52.530;9.760;2022-09-09T05:31:13;100356.41;;;13.28;100.00
58927;BME280;44712;52.530;9.760;2022-09-09T05:33:49;100347.25;;;13.31;100.00
58927;BME280;44712;52.530;9.760;2022-09-09T05:36:20;100354.41;;;13.33;100.00
58927;BME280;44712;52.530;9.760;2022-09-09T05:38:51;100352.56;;;13.35;100.00
58927;BME280;44712;52.530;9.760;2022-09-09T05:41:20;100352.47;;;13.38;100.00
58927;BME280;44712;52.530;9.760;2022-09-09T05:43:48;100358.78;;;13.41;100.00
58927;BME280;44712;52.530;9.760;2022-09-09T05:46:20;100360.47;;;13.45;100.00
58927;BME280;44712;52.530;9.760;2022-09-09T05:48:51;100357.63;;;13.48;100.00
58927;BME280;44712;52.530;9.760;2022-09-09T05:51:24;100355.81;;;13.48;100.00
58927;BME280;44712;52.530;9.760;2022-09-09T05:53:55;100360.28;;;13.51;100.00
58927;BME280;44712;52.530;9.760;2022-09-09T05:56:28;100363.81;;;13.53;100.00
58927;BME280;44712;52.530;9.760;2022-09-09T05:58:56;100360.06;;;13.57;100.00
58927;BME280;44712;52.530;9.760;2022-09-09T06:01:26;100363.66;;;13.59;100.00
58927;BME280;44712;52.530;9.760;2022-09-09T06:03:53;100368.03;;;13.63;100.00
58927;BME280;44712;52.530;9.760;2022-09-09T06:06:25;100374.31;;;13.65;100.00
58927;BME280;44712;52.530;9.760;2022-09-09T06:08:57;100371.50;;;13.68;100.00
58927;BME280;44712;52.530;9.760;2022-09-09T06:11:30;100381.41;;;13.71;100.00
58927;BME280;44712;52.530;9.760;2022-09-09T06:14:03;100377.69;;;13.73;100.00
58927;BME280;44712;52.530;9.760;2022-09-09T06:16:30;100386.69;;;13.76;100.00
58927;BME280;44712;52.530;9.760;2022-09-09T06:19:01;100378.41;;;13.79;100.00
58927;BME280;44712;52.530;9.760;2022-09-09T06:21:32;100380.09;;;13.83;100.00
58927;BME280;44712;52.530;9.760;2022-09-09T06:24:01;100370.06;;;13.85;100.00
58927;BME280;44712;52.530;9.760;2022-09-09T06:26:31;100370.88;;;13.88;100.00
58927;BME280;44712;52.530;9.760;2022-09-09T06:29:01;100377.09;;;13.92;100.00
58927;BME280;44712;52.530;9.760;2022-09-09T06:31:32;100367.88;;;13.96;100.00
58927;BME280;44712;52.530;9.760;2022-09-09T06:34:07;100366.88;;;14.00;100.00
58927;BME280;44712;52.530;9.760;2022-09-09T06:36:38;100363.13;;;14.03;100.00
58927;BME280;44712;52.530;9.760;2022-09-09T06:39:08;100369.38;;;14.06;100.00
58927;BME280;44712;52.530;9.760;2022-09-09T06:41:41;100360.16;;;14.11;100.00
58927;BME280;44712;52.530;9.760;2022-09-09T06:44:24;100367.28;;;14.15;100.00
58927;BME280;44712;52.530;9.760;2022-09-09T06:47:00;100367.06;;;14.21;100.00
58927;BME280;44712;52.530;9.760;2022-09-09T06:49:27;100367.75;;;14.28;100.00
58927;BME280;44712;52.530;9.760;2022-09-09T06:51:54;100362.06;;;14.35;100.00
58927;BME280;44712;52.530;9.760;2022-09-09T06:54:21;100359.00;;;14.45;100.00
58927;BME280;44712;52.530;9.760;2022-09-09T06:56:49;100366.13;;;14.49;100.00
58927;BME280;44712;52.530;9.760;2022-09-09T06:59:21;100366.81;;;14.55;100.00
58927;BME280;44712;52.530;9.760;2022-09-09T07:01:53;100363.84;;;14.62;100.00
58927;BME280;44712;52.530;9.760;2022-09-09T07:04:22;100369.06;;;14.69;100.00
58927;BME280;44712;52.530;9.760;2022-09-09T07:06:49;100365.28;;;14.73;100.00
58927;BME280;44712;52.530;9.760;2022-09-09T07:09:22;100367.06;;;14.75;100.00
58927;BME280;44712;52.530;9.760;2022-09-09T07:11:51;100363.28;;;14.79;100.00
58927;BME280;44712;52.530;9.760;2022-09-09T07:14:21;100362.22;;;14.83;100.00
58927;BME280;44712;52.530;9.760;2022-09-09T07:16:54;100367.34;;;14.92;100.00
58927;BME280;44712;52.530;9.760;2022-09-09T07:19:25;100368.06;;;14.97;100.00
58927;BME280;44712;52.530;9.760;2022-09-09T07:21:53;100357.94;;;15.01;100.00
58927;BME280;44712;52.530;9.760;2022-09-09T07:24:22;100363.13;;;15.07;100.00
58927;BME280;44712;52.530;9.760;2022-09-09T07:26:50;100365.59;;;15.15;100.00
58927;BME280;44712;52.530;9.760;2022-09-09T07:29:18;100367.38;;;15.16;100.00
58927;BME280;44712;52.530;9.760;2022-09-09T07:31:47;100373.59;;;15.19;100.00
58927;BME280;44712;52.530;9.760;2022-09-09T07:34:19;100368.03;;;15.22;100.00
58927;BME280;44712;52.530;9.760;2022-09-09T07:36:46;100369.63;;;15.28;100.00
58927;BME280;44712;52.530;9.760;2022-09-09T07:39:13;100377.50;;;15.36;100.00
58927;BME280;44712;52.530;9.760;2022-09-09T07:41:47;100377.97;;;15.47;100.00
58927;BME280;44712;52.530;9.760;2022-09-09T07:44:22;100369.56;;;15.53;100.00
58927;BME280;44712;52.530;9.760;2022-09-09T07:46:55;100371.84;;;15.64;100.00
58927;BME280;44712;52.530;9.760;2022-09-09T07:49:29;100377.56;;;15.82;100.00
58927;BME280;44712;52.530;9.760;2022-09-09T07:51:59;100385.06;;;15.99;100.00
58927;BME280;44712;52.530;9.760;2022-09-09T07:54:26;100390.00;;;16.11;100.00
58927;BME280;44712;52.530;9.760;2022-09-09T07:56:53;100384.94;;;16.24;100.00
58927;BME280;44712;52.530;9.760;2022-09-09T07:59:22;100382.50;;;16.38;100.00
58927;BME280;44712;52.530;9.760;2022-09-09T08:01:53;100382.94;;;16.50;100.00
58927;BME280;44712;52.530;9.760;2022-09-09T08:04:24;100383.38;;;16.61;100.00
58927;BME280;44712;52.530;9.760;2022-09-09T08:06:55;100383.66;;;16.76;100.00
58927;BME280;44712;52.530;9.760;2022-09-09T08:09:24;100383.53;;;16.99;100.00
58927;BME280;44712;52.530;9.760;2022-09-09T08:12:10;100393.19;;;17.27;100.00
58927;BME280;44712;52.530;9.760;2022-09-09T08:14:40;100395.91;;;17.48;100.00
58927;BME280;44712;52.530;9.760;2022-09-09T08:17:06;100385.72;;;17.70;100.00
58927;BME280;44712;52.530;9.760;2022-09-09T08:19:33;100397.03;;;17.82;96.15
58927;BME280;44712;52.530;9.760;2022-09-09T08:22:08;100399.47;;;17.88;95.12
58927;BME280;44712;52.530;9.760;2022-09-09T08:24:37;100401.19;;;18.10;95.69
58927;BME280;44712;52.530;9.760;2022-09-09T08:27:04;100399.44;;;18.26;95.96
58927;BME280;44712;52.530;9.760;2022-09-09T08:29:31;100392.75;;;18.32;92.70
58927;BME280;44712;52.530;9.760;2022-09-09T08:31:58;100394.72;;;18.47;92.19
58927;BME280;44712;52.530;9.760;2022-09-09T08:34:27;100397.56;;;18.63;92.66
58927;BME280;44712;52.530;9.760;2022-09-09T08:36:57;100396.44;;;18.85;92.80
58927;BME280;44712;52.530;9.760;2022-09-09T08:39:32;100403.31;;;18.94;91.71
58927;BME280;44712;52.530;9.760;2022-09-09T08:45:25;100412.69;;;18.88;89.71
58927;BME280;44712;52.530;9.760;2022-09-09T08:50:50;100411.75;;;18.71;89.74
58927;BME280;44712;52.530;9.760;2022-09-09T08:53:24;100411.75;;;18.54;85.68
58927;BME280;44712;52.530;9.760;2022-09-09T08:55:56;100408.22;;;18.69;88.38
58927;BME280;44712;52.530;9.760;2022-09-09T08:58:33;100416.44;;;18.69;88.42
58927;BME280;44712;52.530;9.760;2022-09-09T09:01:25;100418.34;;;18.67;87.72
58927;BME280;44712;52.530;9.760;2022-09-09T09:09:38;100418.63;;;18.44;86.96
58927;BME280;44712;52.530;9.760;2022-09-09T09:12:19;100424.03;;;18.45;87.31
58927;BME280;44712;52.530;9.760;2022-09-09T09:14:49;100414.38;;;18.38;87.32
58927;BME280;44712;52.530;9.760;2022-09-09T09:17:25;100419.63;;;18.43;87.98
58927;BME280;44712;52.530;9.760;2022-09-09T09:19:53;100436.06;;;18.43;88.10
58927;BME280;44712;52.530;9.760;2022-09-09T09:22:32;100435.25;;;18.40;86.97
58927;BME280;44712;52.530;9.760;2022-09-09T09:28:13;100433.16;;;18.46;87.61
58927;BME280;44712;52.530;9.760;2022-09-09T09:30:53;100430.81;;;18.38;84.79
58927;BME280;44712;52.530;9.760;2022-09-09T09:33:33;100431.53;;;18.42;84.33
58927;BME280;44712;52.530;9.760;2022-09-09T09:36:02;100429.38;;;18.48;85.16
58927;BME280;44712;52.530;9.760;2022-09-09T09:38:30;100436.41;;;18.54;85.41
58927;BME280;44712;52.530;9.760;2022-09-09T09:41:16;100430.19;;;18.50;84.53
58927;BME280;44712;52.530;9.760;2022-09-09T09:43:53;100428.91;;;18.57;85.49
58927;BME280;44712;52.530;9.760;2022-09-09T09:46:22;100430.91;;;18.54;83.59
58927;BME280;44712;52.530;9.760;2022-09-09T09:49:04;100422.94;;;18.49;82.92
58927;BME280;44712;52.530;9.760;2022-09-09T09:51:33;100427.53;;;18.49;83.52
58927;BME280;44712;52.530;9.760;2022-09-09T09:56:40;100421.88;;;18.52;82.88
58927;BME280;44712;52.530;9.760;2022-09-09T10:02:26;100415.91;;;18.61;82.37
58927;BME280;44712;52.530;9.760;2022-09-09T10:05:08;100422.72;;;18.71;83.73
58927;BME280;44712;52.530;9.760;2022-09-09T10:07:38;100409.66;;;18.77;82.25
58927;BME280;44712;52.530;9.760;2022-09-09T10:10:08;100408.53;;;18.81;82.00
58927;BME280;44712;52.530;9.760;2022-09-09T10:12:52;100398.22;;;18.86;81.60
58927;BME280;44712;52.530;9.760;2022-09-09T10:15:32;100405.47;;;18.87;80.32
58927;BME280;44712;52.530;9.760;2022-09-09T10:18:14;100405.97;;;18.95;81.12
58927;BME280;44712;52.530;9.760;2022-09-09T10:21:08;100395.66;;;19.00;80.35
58927;BME280;44712;52.530;9.760;2022-09-09T10:24:12;100403.63;;;19.05;78.78
58927;BME280;44712;52.530;9.760;2022-09-09T10:30:04;100397.66;;;19.14;77.24
58927;BME280;44712;52.530;9.760;2022-09-09T10:35:09;100398.34;;;19.35;76.37
58927;BME280;44712;52.530;9.760;2022-09-09T10:38:04;100400.06;;;19.54;76.76
58927;BME280;44712;52.530;9.760;2022-09-09T10:40:47;100403.97;;;19.66;76.88
58927;BME280;44712;52.530;9.760;2022-09-09T10:48:41;100386.31;;;19.87;73.17
58927;BME280;44712;52.530;9.760;2022-09-09T10:53:57;100385.78;;;20.13;73.49
58927;BME280;44712;52.530;9.760;2022-09-09T10:56:30;100391.81;;;20.03;72.20
58927;BME280;44712;52.530;9.760;2022-09-09T10:59:01;100389.69;;;20.09;73.23
58927;BME280;44712;52.530;9.760;2022-09-09T11:06:50;100395.00;;;20.12;72.78
58927;BME280;44712;52.530;9.760;2022-09-09T11:09:22;100399.25;;;20.01;72.42
58927;BME280;44712;52.530;9.760;2022-09-09T11:11:53;100387.81;;;19.93;70.61
58927;BME280;44712;52.530;9.760;2022-09-09T11:16:58;100389.56;;;19.78;71.92
58927;BME280;44712;52.530;9.760;2022-09-09T11:21:57;100389.13;;;19.70;71.96
58927;BME280;44712;52.530;9.760;2022-09-09T11:24:41;100381.47;;;19.59;71.93
58927;BME280;44712;52.530;9.760;2022-09-09T11:27:16;100380.56;;;19.43;71.29
58927;BME280;44712;52.530;9.760;2022-09-09T11:29:54;100387.38;;;19.35;70.88
58927;BME280;44712;52.530;9.760;2022-09-09T11:33:23;100383.81;;;19.33;72.00
58927;BME280;44712;52.530;9.760;2022-09-09T11:40:59;100412.72;;;19.23;71.74
58927;BME280;44712;52.530;9.760;2022-09-09T11:43:30;100416.94;;;19.13;73.11
58927;BME280;44712;52.530;9.760;2022-09-09T11:46:01;100421.31;;;18.99;73.11
58927;BME280;44712;52.530;9.760;2022-09-09T11:48:35;100407.81;;;18.95;73.89
58927;BME280;44712;52.530;9.760;2022-09-09T11:51:09;100414.66;;;18.86;72.81
58927;BME280;44712;52.530;9.760;2022-09-09T11:53:54;100406.59;;;18.83;73.13
58927;BME280;44712;52.530;9.760;2022-09-09T11:56:27;100407.75;;;18.79;73.22
58927;BME280;44712;52.530;9.760;2022-09-09T12:01:28;100409.66;;;18.77;74.48
58927;BME280;44712;52.530;9.760;2022-09-09T12:06:48;100403.78;;;18.67;74.78
58927;BME280;44712;52.530;9.760;2022-09-09T12:11:50;100416.09;;;18.58;75.89
58927;BME280;44712;52.530;9.760;2022-09-09T12:15:16;100409.88;;;18.54;76.51
58927;BME280;44712;52.530;9.760;2022-09-09T12:19:41;100425.16;;;18.41;78.16
58927;BME280;44712;52.530;9.760;2022-09-09T12:22:27;100426.84;;;18.44;78.22
58927;BME280;44712;52.530;9.760;2022-09-09T12:25:27;100427.97;;;18.39;78.95
58927;BME280;44712;52.530;9.760;2022-09-09T12:30:29;100430.06;;;18.34;79.11
58927;BME280;44712;52.530;9.760;2022-09-09T12:33:06;100425.72;;;18.30;79.35
58927;BME280;44712;52.530;9.760;2022-09-09T12:35:35;100426.66;;;18.29;80.70
58927;BME280;44712;52.530;9.760;2022-09-09T12:38:05;100422.09;;;18.30;80.49
58927;BME280;44712;52.530;9.760;2022-09-09T12:40:34;100427.66;;;18.28;80.95
58927;BME280;44712;52.530;9.760;2022-09-09T12:43:19;100420.22;;;18.30;81.73
58927;BME280;44712;52.530;9.760;2022-09-09T12:45:49;100422.84;;;18.33;81.74
58927;BME280;44712;52.530;9.760;2022-09-09T12:48:18;100417.03;;;18.39;81.92
58927;BME280;44712;52.530;9.760;2022-09-09T12:50:49;100407.38;;;18.50;82.73
58927;BME280;44712;52.530;9.760;2022-09-09T12:53:29;100408.81;;;18.57;79.21
58927;BME280;44712;52.530;9.760;2022-09-09T12:56:02;100412.97;;;18.66;78.84
58927;BME280;44712;52.530;9.760;2022-09-09T12:58:32;100404.47;;;18.70;73.56
58927;BME280;44712;52.530;9.760;2022-09-09T13:01:00;100405.78;;;18.63;74.25
58927;BME280;44712;52.530;9.760;2022-09-09T13:03:27;100395.66;;;18.65;73.43
58927;BME280;44712;52.530;9.760;2022-09-09T13:05:58;100394.44;;;18.71;74.63
58927;BME280;44712;52.530;9.760;2022-09-09T13:08:31;100387.09;;;18.89;73.32
58927;BME280;44712;52.530;9.760;2022-09-09T13:11:03;100387.72;;;19.12;72.45
58927;BME280;44712;52.530;9.760;2022-09-09T13:13:38;100381.78;;;19.37;72.89
58927;BME280;44712;52.530;9.760;2022-09-09T13:16:17;100386.03;;;19.43;70.77
58927;BME280;44712;52.530;9.760;2022-09-09T13:18:46;100368.91;;;19.55;70.56
58927;BME280;44712;52.530;9.760;2022-09-09T13:21:13;100374.84;;;19.63;70.80
58927;BME280;44712;52.530;9.760;2022-09-09T13:23:40;100378.38;;;19.65;69.94
58927;BME280;44712;52.530;9.760;2022-09-09T13:26:22;100373.88;;;19.64;69.51
58927;BME280;44712;52.530;9.760;2022-09-09T13:28:51;100375.09;;;19.74;70.16
58927;BME280;44712;52.530;9.760;2022-09-09T13:31:29;100371.97;;;19.98;71.11
58927;BME280;44712;52.530;9.760;2022-09-09T13:34:13;100362.84;;;20.14;70.49
58927;BME280;44712;52.530;9.760;2022-09-09T13:36:41;100372.81;;;20.15;70.79
58927;BME280;44712;52.530;9.760;2022-09-09T13:39:17;100368.97;;;19.87;71.70
58927;BME280;44712;52.530;9.760;2022-09-09T13:41:46;100370.97;;;19.67;71.88
58927;BME280;44712;52.530;9.760;2022-09-09T13:44:22;100369.44;;;19.46;70.20
58927;BME280;44712;52.530;9.760;2022-09-09T13:47:17;100373.47;;;19.38;71.95
58927;BME280;44712;52.530;9.760;2022-09-09T13:49:47;100366.13;;;19.39;72.04
58927;BME280;44712;52.530;9.760;2022-09-09T13:52:16;100366.13;;;19.39;72.46
58927;BME280;44712;52.530;9.760;2022-09-09T13:54:50;100361.94;;;19.32;72.28
58927;BME280;44712;52.530;9.760;2022-09-09T13:57:23;100358.03;;;19.20;73.59
58927;BME280;44712;52.530;9.760;2022-09-09T13:59:53;100356.41;;;19.16;74.19
58927;BME280;44712;52.530;9.760;2022-09-09T14:02:36;100365.63;;;19.15;74.20
58927;BME280;44712;52.530;9.760;2022-09-09T14:05:05;100362.25;;;19.10;74.64
58927;BME280;44712;52.530;9.760;2022-09-09T14:07:32;100370.47;;;19.10;75.26
58927;BME280;44712;52.530;9.760;2022-09-09T14:09:59;100369.50;;;19.11;75.44
58927;BME280;44712;52.530;9.760;2022-09-09T14:12:26;100363.22;;;19.09;75.40
58927;BME280;44712;52.530;9.760;2022-09-09T14:14:54;100372.31;;;19.09;75.44
58927;BME280;44712;52.530;9.760;2022-09-09T14:17:21;100371.13;;;19.15;75.82
58927;BME280;44712;52.530;9.760;2022-09-09T14:19:48;100368.84;;;19.23;74.87
58927;BME280;44712;52.530;9.760;2022-09-09T14:22:15;100371.88;;;19.34;74.97
58927;BME280;44712;52.530;9.760;2022-09-09T14:24:42;100362.59;;;19.53;75.06
58927;BME280;44712;52.530;9.760;2022-09-09T14:27:08;100367.25;;;19.68;73.14
58927;BME280;44712;52.530;9.760;2022-09-09T14:29:35;100361.84;;;19.83;72.17
58927;BME280;44712;52.530;9.760;2022-09-09T14:32:02;100361.31;;;19.92;71.58
58927;BME280;44712;52.530;9.760;2022-09-09T14:34:28;100359.41;;;19.94;72.11
58927;BME280;44712;52.530;9.760;2022-09-09T14:36:55;100354.44;;;19.85;71.85
58927;BME280;44712;52.530;9.760;2022-09-09T14:39:22;100352.00;;;19.79;71.73
58927;BME280;44712;52.530;9.760;2022-09-09T14:41:50;100347.34;;;19.81;72.64
58927;BME280;44712;52.530;9.760;2022-09-09T14:44:16;100346.38;;;19.82;73.30
58927;BME280;44712;52.530;9.760;2022-09-09T14:46:43;100358.34;;;19.81;72.45
58927;BME280;44712;52.530;9.760;2022-09-09T14:49:11;100350.09;;;19.81;72.13